createdAt,value
2019-02-23T00:02:26.247Z,4.90
2019-02-23T00:06:31.954Z,5.37
2019-02-23T00:10:37.710Z,4.30
2019-02-23T00:14:43.472Z,5.03
2019-02-23T00:18:49.258Z,5.87
2019-02-23T00:22:54.951Z,5.00
2019-02-23T00:27:00.714Z,5.30
2019-02-23T00:31:06.468Z,5.63
2019-02-23T00:35:12.205Z,4.85
2019-02-23T00:39:17.916Z,6.07
2019-02-23T00:43:23.614Z,5.33
2019-02-23T00:47:30.390Z,5.67
2019-02-23T00:51:36.069Z,4.93
2019-02-23T00:55:41.768Z,4.73
2019-02-23T00:59:47.459Z,5.37
2019-02-23T01:03:53.168Z,5.43
2019-02-23T01:07:58.871Z,5.20
2019-02-23T01:12:04.558Z,6.40
2019-02-23T01:16:10.324Z,5.27
2019-02-23T01:20:16.089Z,5.90
2019-02-23T01:24:21.853Z,5.47
2019-02-23T01:28:29.293Z,6.00
2019-02-23T01:32:34.992Z,4.10
2019-02-23T01:36:40.690Z,4.97
2019-02-23T01:40:46.594Z,5.43
2019-02-23T01:44:52.407Z,4.67
2019-02-23T01:48:58.112Z,4.27
2019-02-23T01:53:03.813Z,5.60
2019-02-23T01:57:09.556Z,5.17
2019-02-23T02:01:15.322Z,5.00
2019-02-23T02:05:21.166Z,5.10
2019-02-23T02:09:27.012Z,5.47
2019-02-23T02:13:32.882Z,5.70
2019-02-23T02:17:38.743Z,5.77
2019-02-23T02:21:44.693Z,6.40
2019-02-23T02:25:50.480Z,5.20
2019-02-23T02:29:57.345Z,5.07
2019-02-23T02:34:12.863Z,5.60
2019-02-23T02:38:18.579Z,5.03
2019-02-23T02:42:24.265Z,5.53
2019-02-23T02:46:29.933Z,6.63
2019-02-23T02:50:35.643Z,6.60
2019-02-23T02:54:41.343Z,5.67
2019-02-23T02:58:47.034Z,6.03
2019-02-23T03:02:52.726Z,4.70
2019-02-23T03:06:58.420Z,5.63
2019-02-23T03:11:04.117Z,6.40
2019-02-23T03:15:10.120Z,4.90
2019-02-23T03:19:15.806Z,5.80
2019-02-23T03:23:21.534Z,6.07
2019-02-23T03:27:27.198Z,6.27
2019-02-23T03:31:33.030Z,5.63
2019-02-23T03:35:38.763Z,5.83
2019-02-23T03:39:44.557Z,5.60
2019-02-23T03:43:50.207Z,7.07
2019-02-23T03:47:55.885Z,6.97
2019-02-23T03:52:01.580Z,7.10
2019-02-23T03:56:07.366Z,7.12
2019-02-23T04:00:13.273Z,6.43
2019-02-23T04:04:18.933Z,7.10
2019-02-23T04:08:24.651Z,7.53
2019-02-23T04:12:30.405Z,7.57
2019-02-23T04:16:36.186Z,6.70
2019-02-23T04:20:41.871Z,6.87
2019-02-23T04:24:47.684Z,7.50
2019-02-23T04:28:53.382Z,7.47
2019-02-23T04:32:59.067Z,5.97
2019-02-23T04:37:04.766Z,7.40
2019-02-23T04:41:11.117Z,7.42
2019-02-23T04:45:16.800Z,6.50
2019-02-23T04:49:25.653Z,6.87
2019-02-23T04:53:29.876Z,7.50
2019-02-23T04:57:35.629Z,8.47
2019-02-23T05:01:41.383Z,8.30
2019-02-23T05:05:47.303Z,9.43
2019-02-23T05:09:52.994Z,9.73
2019-02-23T05:13:58.689Z,10.07
2019-02-23T05:18:04.473Z,9.33
2019-02-23T05:22:10.173Z,9.67
2019-02-23T05:26:15.925Z,9.73
2019-02-23T05:30:21.619Z,9.53
2019-02-23T05:34:27.319Z,9.40
2019-02-23T05:38:33.001Z,9.53
2019-02-23T05:42:39.728Z,9.27
2019-02-23T05:46:45.536Z,9.23
2019-02-23T05:50:51.278Z,9.37
2019-02-23T05:54:57.144Z,9.13
2019-02-23T05:59:03.796Z,9.00
2019-02-23T06:03:09.504Z,9.93
2019-02-23T06:07:15.204Z,9.77
2019-02-23T06:11:20.909Z,10.00
2019-02-23T06:15:26.588Z,9.57
2019-02-23T06:19:32.281Z,9.97
2019-02-23T06:23:37.957Z,10.10
2019-02-23T06:27:43.733Z,9.63
2019-02-23T06:31:49.515Z,9.78
2019-02-23T06:35:55.210Z,10.00
2019-02-23T06:40:00.909Z,10.13
2019-02-23T06:44:06.591Z,9.90
2019-02-23T06:48:12.300Z,10.83
2019-02-23T06:52:17.988Z,9.77
2019-02-23T06:56:23.770Z,9.70
2019-02-23T07:00:29.529Z,10.37
2019-02-23T07:04:35.209Z,10.33
2019-02-23T07:08:40.911Z,11.13
2019-02-23T07:12:46.607Z,10.23
2019-02-23T07:16:52.357Z,10.55
2019-02-23T07:20:58.094Z,10.47
2019-02-23T07:25:04.736Z,11.13
2019-02-23T07:29:10.426Z,10.03
2019-02-23T07:33:20.136Z,8.93
2019-02-23T07:37:23.526Z,10.87
2019-02-23T07:41:29.212Z,10.83
2019-02-23T07:45:34.911Z,8.67
2019-02-23T07:49:40.602Z,11.03
2019-02-23T07:53:46.386Z,9.70
2019-02-23T07:57:52.158Z,10.27
2019-02-23T08:01:57.884Z,11.13
2019-02-23T08:06:03.552Z,11.43
2019-02-23T08:10:12.322Z,10.90
2019-02-23T08:14:18.026Z,10.77
2019-02-23T08:18:23.738Z,11.67
2019-02-23T08:22:37.026Z,11.43
2019-02-23T08:26:37.819Z,10.03
2019-02-23T08:30:44.483Z,10.53
2019-02-23T08:34:50.259Z,10.47
2019-02-23T08:38:57.026Z,11.30
2019-02-23T08:43:02.736Z,10.27
2019-02-23T08:47:08.445Z,10.40
2019-02-23T08:51:14.158Z,9.60
2019-02-23T08:55:19.927Z,9.60
2019-02-23T08:59:25.637Z,10.10
2019-02-23T09:03:31.357Z,10.23
2019-02-23T09:07:37.069Z,9.40
2019-02-23T09:11:42.799Z,9.63
2019-02-23T09:15:50.689Z,9.50
2019-02-23T09:19:56.305Z,9.50
2019-02-23T09:24:02.018Z,9.33
2019-02-23T09:28:07.728Z,8.30
2019-02-23T09:32:13.427Z,8.10
2019-02-23T09:36:19.138Z,8.00
2019-02-23T09:40:24.834Z,7.73
2019-02-23T09:44:30.517Z,7.33
2019-02-23T09:48:36.233Z,6.97
2019-02-23T09:52:41.939Z,6.80
2019-02-23T09:56:47.727Z,6.83
2019-02-23T10:00:55.163Z,6.83
2019-02-23T10:05:00.786Z,6.13
2019-02-23T10:09:07.708Z,6.07
2019-02-23T10:13:15.097Z,5.40
2019-02-23T10:17:20.780Z,5.93
2019-02-23T10:21:26.541Z,6.07
2019-02-23T10:25:32.445Z,5.90
2019-02-23T10:29:39.317Z,5.40
2019-02-23T10:33:47.657Z,6.20
2019-02-23T10:37:52.435Z,18.20
2019-02-23T10:41:58.132Z,6.60
2019-02-23T10:46:03.848Z,6.50
2019-02-23T10:50:12.387Z,9.17
2019-02-23T10:54:18.139Z,7.73
2019-02-23T10:58:24.813Z,8.60
2019-02-23T11:02:30.592Z,5.80
2019-02-23T11:06:38.424Z,9.77
2019-02-23T11:10:43.853Z,7.87
2019-02-23T11:14:49.598Z,7.57
2019-02-23T11:18:55.309Z,8.10
2019-02-23T11:23:01.350Z,6.90
2019-02-23T11:27:07.636Z,4.77
2019-02-23T11:31:13.413Z,4.50
2019-02-23T11:35:19.122Z,5.40
2019-02-23T11:39:24.820Z,4.40
2019-02-23T11:43:30.522Z,4.90
2019-02-23T11:47:36.225Z,4.30
2019-02-23T11:51:41.931Z,5.17
2019-02-23T11:55:47.695Z,4.53
2019-02-23T11:59:53.466Z,4.20
2019-02-23T12:03:59.173Z,4.93
2019-02-23T12:08:04.884Z,4.00
2019-02-23T12:12:10.579Z,3.97
2019-02-23T12:16:16.294Z,3.62
2019-02-23T12:20:22.032Z,3.70
2019-02-23T12:24:27.724Z,3.83
2019-02-23T12:28:33.483Z,3.13
2019-02-23T12:32:39.178Z,3.50
2019-02-23T12:36:45.939Z,4.80
2019-02-23T12:40:51.643Z,4.67
2019-02-23T12:44:57.353Z,4.70
2019-02-23T12:49:03.049Z,4.50
2019-02-23T12:53:08.746Z,4.00
2019-02-23T12:57:14.432Z,3.93
2019-02-23T13:01:20.131Z,3.73
2019-02-23T13:05:25.842Z,3.90
2019-02-23T13:09:33.446Z,2.93
2019-02-23T13:13:49.152Z,2.77
2019-02-23T13:18:44.119Z,3.33
2019-02-23T13:23:10.650Z,3.50
2019-02-23T13:27:35.805Z,2.92
2019-02-23T13:31:46.101Z,3.17
2019-02-23T13:36:28.022Z,3.60
2019-02-23T13:41:13.367Z,2.63
2019-02-23T13:45:38.288Z,3.30
2019-02-23T13:50:12.673Z,3.30
2019-02-23T13:54:48.043Z,3.00
2019-02-23T13:59:06.517Z,2.50
2019-02-23T14:03:36.607Z,3.03
2019-02-23T14:07:48.728Z,2.67
2019-02-23T14:12:40.218Z,2.87
2019-02-23T14:17:07.997Z,3.00
2019-02-23T14:21:44.055Z,2.87
2019-02-23T14:26:09.470Z,2.70
2019-02-23T14:30:57.589Z,2.70
2019-02-23T14:35:20.096Z,2.90
2019-02-23T14:39:57.224Z,3.23
2019-02-23T14:44:37.226Z,3.43
2019-02-23T14:49:34.262Z,2.97
2019-02-23T14:53:56.506Z,3.23
2019-02-23T14:58:38.301Z,3.40
2019-02-23T15:02:51.358Z,2.57
2019-02-23T15:07:16.651Z,2.93
2019-02-23T15:11:35.704Z,3.03
2019-02-23T15:16:24.373Z,2.50
2019-02-23T15:20:55.403Z,2.80
2019-02-23T15:25:33.792Z,2.63
2019-02-23T15:30:00.330Z,2.50
2019-02-23T15:34:23.841Z,2.50
2019-02-23T15:39:16.890Z,2.80
2019-02-23T15:43:39.080Z,2.43
2019-02-23T15:48:06.876Z,2.80
2019-02-23T15:52:12.721Z,2.67
2019-02-23T15:56:18.490Z,2.90
2019-02-23T16:00:24.198Z,2.87
2019-02-23T16:04:29.877Z,2.60
2019-02-23T16:08:35.581Z,2.23
2019-02-23T16:12:42.326Z,2.80
2019-02-23T16:16:48.044Z,2.60
2019-02-23T16:20:53.867Z,2.70
2019-02-23T16:25:01.189Z,3.00
2019-02-23T16:29:07.019Z,2.90
2019-02-23T16:33:12.772Z,2.70
2019-02-23T16:37:18.514Z,2.20
2019-02-23T16:41:24.252Z,2.60
2019-02-23T16:45:29.939Z,3.00
2019-02-23T16:49:35.656Z,3.03
2019-02-23T16:53:41.361Z,3.60
2019-02-23T16:57:47.075Z,3.30
2019-02-23T17:01:52.760Z,3.50
2019-02-23T17:05:59.809Z,3.97
2019-02-23T17:10:07.360Z,4.30
2019-02-23T17:14:13.046Z,3.00
2019-02-23T17:18:18.747Z,3.80
2019-02-23T17:22:25.408Z,3.37
2019-02-23T17:26:31.097Z,3.70
2019-02-23T17:30:36.804Z,3.57
2019-02-23T17:34:42.519Z,2.90
2019-02-23T17:38:48.227Z,3.63
2019-02-23T17:42:53.923Z,3.10
2019-02-23T17:46:59.635Z,3.30
2019-02-23T17:51:05.350Z,2.83
2019-02-23T17:55:11.043Z,3.20
2019-02-23T17:59:16.789Z,3.47
2019-02-23T18:03:22.768Z,3.50
2019-02-23T18:07:28.523Z,3.50
2019-02-23T18:11:34.232Z,3.60
2019-02-23T18:15:40.024Z,3.00
2019-02-23T18:19:45.708Z,3.40
2019-02-23T18:23:51.496Z,3.40
2019-02-23T18:27:57.221Z,10.93
2019-02-23T18:37:08.406Z,3.90
2019-02-23T18:41:14.175Z,50.97
2019-02-23T18:45:19.943Z,44.20
2019-02-23T18:49:25.748Z,9.33
2019-02-23T18:53:31.577Z,6.70
2019-02-23T18:57:37.302Z,6.73
2019-02-23T19:01:43.009Z,3.60
2019-02-23T19:05:50.100Z,3.20
2019-02-23T19:09:56.876Z,3.10
2019-02-23T19:14:02.627Z,5.00
2019-02-23T19:18:20.424Z,3.93
2019-02-23T19:22:26.140Z,3.57
2019-02-23T19:26:38.247Z,3.90
2019-02-23T19:30:40.370Z,3.50
2019-02-23T19:34:46.159Z,9.63
2019-02-23T19:38:51.919Z,4.63
2019-02-23T19:42:57.652Z,3.33
2019-02-23T19:47:03.554Z,3.10
2019-02-23T19:51:10.170Z,3.70
2019-02-23T19:55:17.593Z,3.50
2019-02-23T19:59:23.294Z,3.50
2019-02-23T20:03:29.044Z,3.00
2019-02-23T20:07:34.739Z,5.23
2019-02-23T20:11:40.464Z,3.60
2019-02-23T20:15:46.340Z,4.90
2019-02-23T20:36:19.094Z,3.90
2019-02-23T20:41:15.905Z,3.10
2019-02-23T20:45:21.721Z,4.97
2019-02-23T20:50:18.263Z,3.87
2019-02-23T20:54:24.022Z,2.73
2019-02-23T20:59:17.802Z,3.40
2019-02-23T21:03:23.501Z,3.30
2019-02-23T21:08:17.472Z,3.17
2019-02-23T21:12:23.290Z,2.90
2019-02-23T21:17:17.142Z,3.17
2019-02-23T21:21:22.845Z,3.80
2019-02-23T21:26:16.856Z,2.50
2019-02-23T21:30:22.541Z,2.90
2019-02-23T21:39:58.930Z,4.60
2019-02-23T21:44:19.490Z,2.90
2019-02-23T21:48:25.225Z,2.63
2019-02-23T21:52:30.929Z,2.47
2019-02-23T21:56:36.645Z,3.00
2019-02-23T22:00:42.361Z,2.42
2019-02-23T22:04:48.061Z,2.40
2019-02-23T22:08:53.822Z,2.27
2019-02-23T22:12:59.557Z,2.12
2019-02-23T22:17:05.293Z,2.27
2019-02-23T22:21:10.995Z,2.50
2019-02-23T22:25:16.700Z,2.00
2019-02-23T22:29:22.393Z,2.30
2019-02-23T22:33:28.181Z,2.40
2019-02-23T22:37:33.902Z,2.60
2019-02-23T22:41:39.566Z,2.03
2019-02-23T22:45:45.278Z,2.27
2019-02-23T22:49:50.986Z,2.43
2019-02-23T22:53:56.690Z,1.90
2019-02-23T22:58:02.420Z,1.90
2019-02-23T23:02:08.189Z,2.10
2019-02-23T23:06:13.934Z,2.10
2019-02-23T23:10:19.689Z,1.80
2019-02-23T23:14:25.368Z,2.10
2019-02-23T23:18:32.032Z,1.60
2019-02-23T23:22:37.716Z,1.73
2019-02-23T23:26:43.484Z,1.90
2019-02-23T23:30:49.191Z,2.93
2019-02-23T23:34:54.957Z,1.90
2019-02-23T23:39:00.695Z,1.70
2019-02-23T23:43:08.004Z,2.40
2019-02-23T23:47:13.722Z,1.67
2019-02-23T23:51:19.405Z,1.83
2019-02-23T23:55:25.097Z,1.70
2019-02-23T23:59:30.779Z,1.80
